Latest Weather Observations for Mandurah

IDW60801

Issued at 4:05 pm WST Thursday 24 April 2014 (issued every 30 minutes, with the page automatically refreshed every 10 minutes)

About weather observations | Map of weather stations | Latest weather observations for WA | Other Formats
Station Details ID: 009977 Name: MANDURAH Lat: -32.52 Lon: 115.71 Height: 3.0 m
Data from the previous 72 hours. | See also: Recent months at Mandurah
Date/Time
WST
Temp
°C
App
Temp
°C
Dew
Point
Rel
Hum
%
Delta-T
°C
Wind Press
QNH
hPa
Press
MSL
hPa
Rain
since 9 am
mm
Dir
 
Spd
km/h
Gust
km/h
Spd
kts
Gust
kts
24/04:00pm 21.0 19.6 14.4 66 3.9 SW 15 22 8 12 1007.7 1007.7 0.0
24/03:30pm 21.3 19.3 14.0 63 4.2 W 17 22 9 12 1008.4 - 0.0
24/03:00pm 21.4 20.1 13.8 62 4.4 SSE 13 19 7 10 1006.9 1006.9 0.0
24/02:30pm 21.6 21.2 14.0 62 4.4 SW 9 13 5 7 1007.6 - 0.0
24/02:00pm 22.3 21.5 12.8 55 5.4 WSW 9 13 5 7 1007.6 1007.6 0.0
24/01:30pm 23.3 22.5 11.0 46 6.8 SW 6 7 3 4 1007.8 - 0.0
24/01:00pm 23.1 21.6 9.1 41 7.5 S 7 11 4 6 1008.3 1008.3 0.0
24/12:30pm 23.0 21.7 9.8 43 7.2 SSW 7 9 4 5 1008.9 - 0.0
24/12:00pm 23.0 22.7 11.4 48 6.5 W 4 6 2 3 1009.1 1009.1 0.0
24/11:30am 22.5 21.5 10.3 46 6.7 S 6 7 3 4 1009.2 - 0.0
24/11:00am 21.5 20.9 10.3 49 6.1 SSE 4 11 2 6 1009.7 1009.7 0.0
24/10:30am 20.6 19.4 9.5 49 5.9 SSE 6 9 3 5 1010.2 - 0.0
24/10:00am 19.8 18.4 9.7 52 5.4 SSE 7 9 4 5 1010.7 1010.7 0.0
24/09:30am 19.1 18.2 9.3 53 5.2 SSE 4 7 2 4 1010.9 - 0.0
24/09:00am 18.5 17.2 10.1 58 4.5 SSE 7 13 4 7 1011.0 1011.0 0.0
24/08:30am 17.7 16.4 9.1 57 4.5 SE 6 7 3 4 1011.2 - 0.0
24/08:00am 17.0 15.5 9.2 60 4.1 SE 7 9 4 5 1011.2 1011.2 0.0
24/07:30am 16.5 14.5 8.5 59 4.1 SE 9 13 5 7 1011.1 - 0.0
24/07:00am 16.5 14.2 9.0 61 3.9 SE 11 15 6 8 1011.1 1011.1 0.0
24/06:30am 16.6 14.6 8.8 60 4.0 SSE 9 13 5 7 1011.2 - 0.0
24/06:00am 16.5 14.1 8.7 60 4.0 SSE 11 17 6 9 1011.2 1011.2 0.0
24/05:30am 16.5 14.5 8.7 60 4.0 SSE 9 13 5 7 1011.4 - 0.0
24/05:00am 16.5 14.5 8.7 60 4.0 SSE 9 15 5 8 1011.3 1011.3 0.0
24/04:30am 16.7 15.2 8.4 58 4.2 SSE 6 9 3 5 1011.4 - 0.0
24/04:00am 17.0 14.9 8.2 56 4.5 SE 9 15 5 8 1011.6 1011.6 0.0
24/03:30am 17.1 15.3 8.0 55 4.6 SE 7 13 4 7 1011.8 - 0.0
24/03:00am 17.3 14.7 7.6 53 4.9 ESE 11 17 6 9 1012.2 1012.2 0.0
24/02:30am 17.6 14.5 7.4 51 5.1 ESE 13 20 7 11 1012.5 - 0.0
24/02:00am 17.7 15.0 7.2 50 5.3 ESE 11 26 6 14 1012.8 1012.8 0.0
24/01:30am 17.6 14.5 7.1 50 5.2 ESE 13 17 7 9 1012.9 - 0.0
24/01:00am 17.9 15.6 7.3 50 5.3 SE 9 13 5 7 1013.0 1013.0 0.0
24/12:30am 18.3 16.3 7.1 48 5.6 ESE 7 11 4 6 1013.1 - 0.0
24/12:00am 18.4 16.0 7.2 48 5.6 ESE 9 15 5 8 1013.3 1013.3 0.0
 
Date/Time
WST
Temp
°C
App
Temp
°C
Dew
Point
Rel
Hum
%
Delta-T
°C
Wind Press
QNH
hPa
Press
MSL
hPa
Rain
since 9 am
mm
Dir
 
Spd
km/h
Gust
km/h
Spd
kts
Gust
kts
23/11:30pm 18.6 16.2 7.1 47 5.8 ESE 9 15 5 8 1013.6 - 0.0
23/11:00pm 18.8 16.1 7.3 47 5.8 ESE 11 15 6 8 1013.8 1013.8 0.0
23/10:30pm 18.9 16.6 7.4 47 5.8 SE 9 13 5 7 1014.1 - 0.0
23/10:00pm 19.1 16.4 7.2 46 6.0 SE 11 13 6 7 1014.3 1014.3 0.0
23/09:30pm 18.7 16.5 7.8 49 5.6 SE 9 11 5 6 1014.4 - 0.0
23/09:00pm 19.4 17.3 8.1 48 5.8 SE 9 13 5 7 1014.4 1014.4 0.0
23/08:30pm 19.7 17.5 9.3 51 5.5 SE 11 15 6 8 1014.5 - 0.0
23/08:00pm 19.8 18.1 11.3 58 4.7 SSE 11 15 6 8 1014.5 1014.5 0.0
23/07:30pm 19.7 18.2 13.2 66 3.7 S 13 17 7 9 1014.6 - 0.0
23/07:00pm 19.9 19.0 13.6 67 3.6 S 11 17 6 9 1014.6 1014.6 0.0
23/06:30pm 20.1 18.3 13.3 65 3.9 S 15 19 8 10 1014.2 - 0.0
23/06:00pm 20.4 18.9 13.1 63 4.2 S 13 19 7 10 1014.0 1014.0 0.0
23/05:30pm 20.9 18.9 12.8 60 4.6 S 15 24 8 13 1013.9 - 0.0
23/05:00pm 21.4 19.0 12.8 58 4.9 S 17 24 9 13 1013.8 1013.8 0.0
23/04:30pm 22.7 20.6 12.3 52 5.9 SSW 15 20 8 11 1013.8 - 0.0
23/04:00pm 22.8 20.6 12.1 51 6.0 SSW 15 22 8 12 1013.9 1013.9 0.0
23/03:30pm 23.2 20.8 11.3 47 6.6 S 15 20 8 11 1013.9 - 0.0
23/03:00pm 23.1 20.4 10.5 45 6.9 S 15 19 8 10 1014.0 1014.0 0.0
23/02:30pm 23.7 21.1 9.3 40 7.8 S 13 17 7 9 1014.4 - 0.0
23/02:00pm 23.3 20.3 7.8 37 8.1 S 13 20 7 11 1014.7 1014.7 0.0
23/01:30pm 22.8 19.6 8.5 40 7.6 S 15 20 8 11 1015.0 - 0.0
23/01:00pm 22.5 19.6 8.2 40 7.5 S 13 20 7 11 1015.6 1015.6 0.0
23/12:30pm 22.1 19.3 8.6 42 7.1 SSE 13 20 7 11 1016.3 - 0.0
23/12:00pm 21.5 18.8 9.1 45 6.6 SSE 13 20 7 11 1016.7 1016.7 0.0
23/11:30am 20.6 17.4 8.6 46 6.3 S 15 22 8 12 1017.1 - 0.0
23/11:00am 20.0 16.9 9.0 49 5.8 SSE 15 24 8 13 1017.5 1017.5 0.0
23/10:30am 19.3 15.5 9.2 52 5.3 SE 19 30 10 16 1017.7 - 0.0
23/10:00am 18.4 15.4 9.2 55 4.8 SE 15 24 8 13 1018.3 1018.3 0.0
23/09:30am 17.2 14.5 8.9 58 4.3 SE 13 22 7 12 1018.8 - 0.0
23/09:00am 15.4 13.9 9.1 66 3.2 SSE 7 9 4 5 1019.0 1019.0 0.0
23/08:30am 14.4 12.1 9.0 70 2.7 SE 11 15 6 8 1018.8 - 0.0
23/08:00am 13.4 11.4 8.7 73 2.4 SE 9 13 5 7 1018.5 1018.5 0.0
23/07:30am 12.9 11.4 9.0 77 2.0 SSE 7 11 4 6 1018.1 - 0.0
23/07:00am 12.7 11.2 8.6 76 2.0 SSE 6 7 3 4 1017.9 1017.9 0.0
23/06:30am 12.7 11.2 8.6 76 2.0 SSE 6 7 3 4 1017.8 - 0.0
23/06:00am 12.1 11.0 8.4 78 1.8 ESE 4 7 2 4 1017.7 1017.7 0.0
23/05:30am 12.5 11.0 8.6 77 1.9 SE 6 9 3 5 1017.8 - 0.0
23/05:00am 12.8 11.2 8.7 76 2.0 SE 7 9 4 5 1017.7 1017.7 0.0
23/04:30am 13.3 11.3 8.8 74 2.3 SE 9 13 5 7 1017.5 - 0.0
23/04:00am 13.9 12.0 9.1 73 2.4 SE 9 13 5 7 1017.5 1017.5 0.0
23/03:30am 14.2 12.8 9.6 74 2.4 SE 7 11 4 6 1017.5 - 0.0
23/03:00am 14.3 12.9 9.7 74 2.4 SE 7 11 4 6 1017.7 1017.7 0.0
23/02:30am 14.6 13.3 9.8 73 2.5 SE 7 11 4 6 1017.9 - 0.0
23/02:00am 14.8 13.1 9.8 72 2.6 SSE 9 13 5 7 1018.0 1018.0 0.0
23/01:30am 14.7 12.5 9.3 70 2.8 SE 11 15 6 8 1018.2 - 0.0
23/01:00am 15.2 13.4 9.6 69 2.9 SE 9 13 5 7 1018.1 1018.1 0.0
23/12:30am 15.5 13.0 9.6 68 3.1 SSE 13 20 7 11 1017.9 - 0.0
23/12:00am 15.8 14.2 10.1 69 3.0 SSE 9 17 5 9 1018.3 1018.3 0.0
 
Date/Time
WST
Temp
°C
App
Temp
°C
Dew
Point
Rel
Hum
%
Delta-T
°C
Wind Press
QNH
hPa
Press
MSL
hPa
Rain
since 9 am
mm
Dir
 
Spd
km/h
Gust
km/h
Spd
kts
Gust
kts
22/11:30pm 16.1 13.8 10.4 69 3.0 SSE 13 19 7 10 1018.4 - 0.0
22/11:00pm 16.2 13.5 10.5 69 3.0 SSE 15 19 8 10 1018.7 1018.7 0.0
22/10:30pm 16.5 13.8 10.4 67 3.2 SSE 15 22 8 12 1018.9 - 0.0
22/10:00pm 16.4 15.0 10.9 70 2.9 SSE 9 13 5 7 1019.1 1019.1 0.0
22/09:30pm 17.5 16.4 11.8 69 3.1 SSE 9 15 5 8 1018.7 - 0.0
22/09:00pm 17.9 16.2 11.2 65 3.6 S 11 17 6 9 1018.6 1018.6 0.0
22/08:30pm 18.1 15.9 10.7 62 4.0 S 13 19 7 10 1018.7 - 0.0
22/08:00pm 18.0 16.5 10.4 61 4.1 S 9 15 5 8 1018.7 1018.7 0.0
22/07:30pm 18.2 16.2 10.1 59 4.3 SSW 11 17 6 9 1018.9 - 0.0
22/07:00pm 18.4 16.4 10.0 58 4.5 S 11 15 6 8 1018.5 1018.5 0.0
22/06:30pm 18.6 16.2 9.9 57 4.6 S 13 20 7 11 1017.9 - 0.0
22/06:00pm 18.8 16.8 10.1 57 4.6 S 11 20 6 11 1017.5 1017.5 0.0
22/05:30pm 19.4 16.4 9.3 52 5.3 S 15 26 8 14 1017.7 - 0.0
22/05:00pm 20.1 16.4 8.1 46 6.2 S 17 22 9 12 1017.9 1017.9 0.0
22/04:30pm 20.5 16.4 7.8 44 6.6 SSW 19 24 10 13 1017.8 - 0.0
22/04:00pm 21.6 18.7 8.1 42 7.0 SSW 13 20 7 11 1017.7 1017.7 0.0
22/03:30pm 21.7 18.7 7.5 40 7.3 SSW 13 22 7 12 1017.8 - 0.0
22/03:00pm 22.0 18.8 7.0 38 7.7 SSW 13 19 7 10 1017.9 1017.9 0.0
22/02:30pm 22.2 19.4 6.8 37 7.9 SSW 11 20 6 11 1018.2 - 0.0
22/02:00pm 22.6 19.7 8.0 39 7.6 WSW 13 20 7 11 1018.4 1018.4 0.0
22/01:30pm 22.5 19.4 9.0 42 7.2 WSW 15 24 8 13 1018.9 - 0.0
22/01:00pm 21.8 18.4 7.6 40 7.3 W 15 19 8 10 1019.1 1019.1 0.0
22/12:30pm 21.1 17.7 7.7 42 6.9 WSW 15 19 8 10 1019.8 - 0.0
22/12:00pm 20.4 17.5 8.1 45 6.4 WSW 13 17 7 9 1020.1 1020.1 0.0
22/11:30am 20.0 18.2 8.0 46 6.2 SW 7 13 4 7 1020.4 - 0.0
22/11:00am 18.6 16.7 7.7 49 5.5 SSE 7 11 4 6 1020.8 1020.8 0.0
22/10:30am 18.4 17.2 8.1 51 5.3 SW 4 7 2 4 1021.2 - 0.0
22/10:00am 18.6 18.2 8.3 51 5.3 CALM 0 2 0 1 1021.5 1021.5 0.0
22/09:30am 16.2 14.9 7.7 57 4.3 SSE 4 6 2 3 1021.7 - 0.0
22/09:00am 15.0 13.4 7.8 62 3.6 SSE 6 7 3 4 1021.6 1021.6 0.0
22/08:30am 14.1 12.3 7.2 63 3.4 SSE 6 7 3 4 1021.4 - 0.0
22/08:00am 13.2 11.4 7.0 66 3.0 SE 6 7 3 4 1021.2 1021.2 0.0
22/07:30am 13.1 11.6 8.6 74 2.2 SSE 6 7 3 4 1021.0 - 0.0
22/07:00am 12.8 11.4 8.9 77 1.9 SSE 6 7 3 4 1020.7 1020.7 0.0
22/06:30am 12.7 11.5 9.5 81 1.6 S 6 9 3 5 1020.5 - 0.0
22/06:00am 13.1 11.9 9.7 80 1.7 S 6 7 3 4 1020.4 1020.4 0.0
22/05:30am 13.4 12.0 8.9 74 2.3 S 6 9 3 5 1020.4 - 0.0
22/05:00am 13.4 12.1 9.1 75 2.2 S 6 9 3 5 1020.2 1020.2 0.0
22/04:30am 13.1 11.5 7.8 70 2.6 SSE 6 9 3 5 1020.1 - 0.0
22/04:00am 13.5 10.5 7.9 69 2.8 SSE 13 17 7 9 1019.9 1019.9 0.0
22/03:30am 13.9 11.3 9.3 74 2.3 SSE 13 20 7 11 1019.9 - 0.0
22/03:00am 14.2 11.6 9.4 73 2.4 SSE 13 20 7 11 1020.1 1020.1 0.0
22/02:30am 14.4 11.8 9.4 72 2.6 SSE 13 20 7 11 1020.1 - 0.0
22/02:00am 14.6 11.6 9.4 71 2.7 SSE 15 20 8 11 1020.0 1020.0 0.0
22/01:30am 14.7 11.7 9.3 70 2.8 SSE 15 20 8 11 1020.1 - 0.0
22/01:00am 14.9 11.6 9.7 71 2.7 SSE 17 22 9 12 1020.2 1020.2 0.0
22/12:30am 15.3 13.3 10.3 72 2.6 SSE 11 19 6 10 1020.2 - 0.0
22/12:00am 15.4 13.0 10.2 71 2.7 SSE 13 17 7 9 1020.3 1020.3 0.0
 
Date/Time
WST
Temp
°C
App
Temp
°C
Dew
Point
Rel
Hum
%
Delta-T
°C
Wind Press
QNH
hPa
Press
MSL
hPa
Rain
since 9 am
mm
Dir
 
Spd
km/h
Gust
km/h
Spd
kts
Gust
kts
21/11:30pm 15.5 12.6 9.6 68 3.1 SSE 15 22 8 12 1020.5 - 0.0
21/11:00pm 15.9 12.5 9.1 64 3.5 SSE 17 22 9 12 1020.7 1020.7 0.0
21/10:30pm 16.6 13.7 9.5 63 3.7 SSE 15 22 8 12 1020.7 - 0.0
21/10:00pm 17.2 14.0 9.9 62 3.8 SSE 17 24 9 13 1020.8 1020.8 0.0
21/09:30pm 18.1 16.3 11.0 63 3.8 S 11 17 6 9 1020.8 - 0.0
21/09:00pm 18.1 15.8 10.5 61 4.1 S 13 17 7 9 1020.9 1020.9 0.0
21/08:30pm 18.2 15.9 10.6 61 4.1 S 13 17 7 9 1021.0 - 0.0
21/08:00pm 18.3 16.4 10.4 60 4.2 S 11 19 6 10 1020.8 1020.8 0.0
21/07:30pm 18.4 16.6 10.8 61 4.1 S 11 17 6 9 1020.5 - 0.0
21/07:00pm 18.5 16.3 10.8 61 4.1 S 13 19 7 10 1020.2 1020.2 0.0
21/06:30pm 18.7 16.8 10.5 59 4.4 S 11 19 6 10 1019.9 - 0.0
21/06:00pm 18.8 16.4 10.1 57 4.6 SSW 13 17 7 9 1019.6 1019.6 0.0
21/05:30pm 19.4 17.0 9.9 54 5.1 SSW 13 22 7 12 1019.2 - 0.0
21/05:00pm 19.9 16.7 8.6 48 5.9 SSW 15 20 8 11 1019.1 1019.1 0.0
21/04:30pm 20.4 16.5 8.7 47 6.1 SW 19 24 10 13 1019.0 - 0.0

Other Formats:

Comma delimited format used in spreadsheet applications
http://www.bom.gov.au/fwo/IDW60801/IDW60801.94605.axf

JavaScript Object Notation format (JSON) in row-major order
http://www.bom.gov.au/fwo/IDW60801/IDW60801.94605.json